sensor_id;sensor_type;location;lat;lon;timestamp;temperature;humidity
9730;DHT22;4904;49.152;11.004;2023-06-26T00:00:34;18.70;99.90
9730;DHT22;4904;49.152;11.004;2023-06-26T00:03:02;18.60;99.90
9730;DHT22;4904;49.152;11.004;2023-06-26T00:05:29;18.50;99.90
9730;DHT22;4904;49.152;11.004;2023-06-26T00:07:56;18.50;99.90
9730;DHT22;4904;49.152;11.004;2023-06-26T00:10:27;18.30;99.90
9730;DHT22;4904;49.152;11.004;2023-06-26T00:12:54;18.20;99.90
9730;DHT22;4904;49.152;11.004;2023-06-26T00:15:20;18.30;99.90
9730;DHT22;4904;49.152;11.004;2023-06-26T00:17:47;18.20;99.90
9730;DHT22;4904;49.152;11.004;2023-06-26T00:20:16;18.10;99.90
9730;DHT22;4904;49.152;11.004;2023-06-26T00:22:44;18.10;99.90
9730;DHT22;4904;49.152;11.004;2023-06-26T00:25:11;18.10;99.90
9730;DHT22;4904;49.152;11.004;2023-06-26T00:27:39;18.00;99.90
9730;DHT22;4904;49.152;11.004;2023-06-26T00:30:09;18.10;99.90
9730;DHT22;4904;49.152;11.004;2023-06-26T00:32:35;18.10;99.90
9730;DHT22;4904;49.152;11.004;2023-06-26T00:35:02;18.10;99.90
9730;DHT22;4904;49.152;11.004;2023-06-26T00:37:29;18.10;99.90
9730;DHT22;4904;49.152;11.004;2023-06-26T00:39:56;18.20;99.90
9730;DHT22;4904;49.152;11.004;2023-06-26T00:42:23;18.10;99.90
9730;DHT22;4904;49.152;11.004;2023-06-26T00:44:51;18.10;99.90
9730;DHT22;4904;49.152;11.004;2023-06-26T00:47:18;18.10;99.90
9730;DHT22;4904;49.152;11.004;2023-06-26T00:49:45;18.00;99.90
9730;DHT22;4904;49.152;11.004;2023-06-26T00:52:12;17.80;99.90
9730;DHT22;4904;49.152;11.004;2023-06-26T00:54:39;17.80;99.90
9730;DHT22;4904;49.152;11.004;2023-06-26T00:57:06;17.50;99.90
9730;DHT22;4904;49.152;11.004;2023-06-26T00:59:33;17.40;99.90
9730;DHT22;4904;49.152;11.004;2023-06-26T01:02:02;17.20;99.90
9730;DHT22;4904;49.152;11.004;2023-06-26T01:04:29;17.20;99.90
9730;DHT22;4904;49.152;11.004;2023-06-26T01:06:59;17.20;99.90
9730;DHT22;4904;49.152;11.004;2023-06-26T01:09:26;17.10;99.90
9730;DHT22;4904;49.152;11.004;2023-06-26T01:11:53;17.10;99.90
9730;DHT22;4904;49.152;11.004;2023-06-26T01:14:20;17.10;99.90
9730;DHT22;4904;49.152;11.004;2023-06-26T01:16:49;17.00;99.90
9730;DHT22;4904;49.152;11.004;2023-06-26T01:19:25;16.90;99.90
9730;DHT22;4904;49.152;11.004;2023-06-26T01:21:58;16.90;99.90
9730;DHT22;4904;49.152;11.004;2023-06-26T01:24:33;16.80;99.90
9730;DHT22;4904;49.152;11.004;2023-06-26T01:27:04;16.80;99.90
9730;DHT22;4904;49.152;11.004;2023-06-26T01:29:32;16.80;99.90
9730;DHT22;4904;49.152;11.004;2023-06-26T01:32:00;16.90;99.90
9730;DHT22;4904;49.152;11.004;2023-06-26T01:34:27;17.00;99.90
9730;DHT22;4904;49.152;11.004;2023-06-26T01:36:54;17.10;99.90
9730;DHT22;4904;49.152;11.004;2023-06-26T01:39:21;17.20;99.90
9730;DHT22;4904;49.152;11.004;2023-06-26T01:41:48;17.20;99.90
9730;DHT22;4904;49.152;11.004;2023-06-26T01:44:23;17.20;99.90
9730;DHT22;4904;49.152;11.004;2023-06-26T01:46:59;17.20;99.90
9730;DHT22;4904;49.152;11.004;2023-06-26T01:49:45;17.20;99.90
9730;DHT22;4904;49.152;11.004;2023-06-26T01:52:19;17.20;99.90
9730;DHT22;4904;49.152;11.004;2023-06-26T01:54:52;17.20;99.90
9730;DHT22;4904;49.152;11.004;2023-06-26T01:57:20;17.20;99.90
9730;DHT22;4904;49.152;11.004;2023-06-26T01:59:51;17.20;99.90
9730;DHT22;4904;49.152;11.004;2023-06-26T02:02:18;17.30;99.90
9730;DHT22;4904;49.152;11.004;2023-06-26T02:04:45;17.20;99.90
9730;DHT22;4904;49.152;11.004;2023-06-26T02:07:14;17.20;99.90
9730;DHT22;4904;49.152;11.004;2023-06-26T02:09:41;17.10;99.90
9730;DHT22;4904;49.152;11.004;2023-06-26T02:12:08;17.10;99.90
9730;DHT22;4904;49.152;11.004;2023-06-26T02:14:35;17.10;99.90
9730;DHT22;4904;49.152;11.004;2023-06-26T02:17:04;17.10;99.90
9730;DHT22;4904;49.152;11.004;2023-06-26T02:19:31;17.10;99.90
9730;DHT22;4904;49.152;11.004;2023-06-26T02:21:58;17.00;99.90
9730;DHT22;4904;49.152;11.004;2023-06-26T02:24:24;17.00;99.90
9730;DHT22;4904;49.152;11.004;2023-06-26T02:26:52;16.90;99.90
9730;DHT22;4904;49.152;11.004;2023-06-26T02:29:19;16.90;99.90
9730;DHT22;4904;49.152;11.004;2023-06-26T02:31:46;16.90;99.90
9730;DHT22;4904;49.152;11.004;2023-06-26T02:34:14;16.90;99.90
9730;DHT22;4904;49.152;11.004;2023-06-26T02:36:41;16.80;99.90
9730;DHT22;4904;49.152;11.004;2023-06-26T02:39:08;16.80;99.90
9730;DHT22;4904;49.152;11.004;2023-06-26T02:41:35;16.70;99.90
9730;DHT22;4904;49.152;11.004;2023-06-26T02:44:02;16.60;99.90
9730;DHT22;4904;49.152;11.004;2023-06-26T02:46:28;16.50;99.90
9730;DHT22;4904;49.152;11.004;2023-06-26T02:48:55;16.60;99.90
9730;DHT22;4904;49.152;11.004;2023-06-26T02:51:23;16.50;99.90
9730;DHT22;4904;49.152;11.004;2023-06-26T02:53:50;16.60;99.90
9730;DHT22;4904;49.152;11.004;2023-06-26T02:56:17;16.60;99.90
9730;DHT22;4904;49.152;11.004;2023-06-26T02:58:44;16.50;99.90
9730;DHT22;4904;49.152;11.004;2023-06-26T03:01:11;16.50;99.90
9730;DHT22;4904;49.152;11.004;2023-06-26T03:03:37;16.40;99.90
9730;DHT22;4904;49.152;11.004;2023-06-26T03:06:07;16.40;99.90
9730;DHT22;4904;49.152;11.004;2023-06-26T03:08:36;16.30;99.90
9730;DHT22;4904;49.152;11.004;2023-06-26T03:11:04;16.30;99.90
9730;DHT22;4904;49.152;11.004;2023-06-26T03:13:32;16.40;99.90
9730;DHT22;4904;49.152;11.004;2023-06-26T03:15:59;16.40;99.90
9730;DHT22;4904;49.152;11.004;2023-06-26T03:18:25;16.30;99.90
9730;DHT22;4904;49.152;11.004;2023-06-26T03:20:52;16.30;99.90
9730;DHT22;4904;49.152;11.004;2023-06-26T03:23:20;16.30;99.90
9730;DHT22;4904;49.152;11.004;2023-06-26T03:25:49;16.20;99.90
9730;DHT22;4904;49.152;11.004;2023-06-26T03:28:16;16.20;99.90
9730;DHT22;4904;49.152;11.004;2023-06-26T03:30:43;16.10;99.90
9730;DHT22;4904;49.152;11.004;2023-06-26T03:33:10;16.00;99.90
9730;DHT22;4904;49.152;11.004;2023-06-26T03:35:37;16.00;99.90
9730;DHT22;4904;49.152;11.004;2023-06-26T03:38:05;15.90;99.90
9730;DHT22;4904;49.152;11.004;2023-06-26T03:40:31;16.00;99.90
9730;DHT22;4904;49.152;11.004;2023-06-26T03:43:00;16.00;99.90
9730;DHT22;4904;49.152;11.004;2023-06-26T03:45:27;16.00;99.90
9730;DHT22;4904;49.152;11.004;2023-06-26T03:47:53;16.10;99.90
9730;DHT22;4904;49.152;11.004;2023-06-26T03:50:20;16.10;99.90
9730;DHT22;4904;49.152;11.004;2023-06-26T03:52:47;16.10;99.90
9730;DHT22;4904;49.152;11.004;2023-06-26T03:55:17;16.20;99.90
9730;DHT22;4904;49.152;11.004;2023-06-26T03:57:44;16.20;99.90
9730;DHT22;4904;49.152;11.004;2023-06-26T04:00:13;16.30;99.90
9730;DHT22;4904;49.152;11.004;2023-06-26T04:02:40;16.30;99.90
9730;DHT22;4904;49.152;11.004;2023-06-26T04:05:08;16.30;99.90
9730;DHT22;4904;49.152;11.004;2023-06-26T04:07:34;16.40;99.90
9730;DHT22;4904;49.152;11.004;2023-06-26T04:10:01;16.50;99.90
9730;DHT22;4904;49.152;11.004;2023-06-26T04:12:28;16.40;99.90
9730;DHT22;4904;49.152;11.004;2023-06-26T04:14:55;16.50;99.90
9730;DHT22;4904;49.152;11.004;2023-06-26T04:17:23;16.50;99.90
9730;DHT22;4904;49.152;11.004;2023-06-26T04:19:50;16.50;99.90
9730;DHT22;4904;49.152;11.004;2023-06-26T04:22:17;16.60;99.90
9730;DHT22;4904;49.152;11.004;2023-06-26T04:24:43;16.60;99.90
9730;DHT22;4904;49.152;11.004;2023-06-26T04:27:11;16.60;99.90
9730;DHT22;4904;49.152;11.004;2023-06-26T04:29:39;16.70;99.90
9730;DHT22;4904;49.152;11.004;2023-06-26T04:32:06;16.70;99.90
9730;DHT22;4904;49.152;11.004;2023-06-26T04:34:35;16.80;99.90
9730;DHT22;4904;49.152;11.004;2023-06-26T04:37:06;16.80;99.90
9730;DHT22;4904;49.152;11.004;2023-06-26T04:39:35;16.80;99.90
9730;DHT22;4904;49.152;11.004;2023-06-26T04:42:02;16.80;99.90
9730;DHT22;4904;49.152;11.004;2023-06-26T04:44:29;17.00;99.90
9730;DHT22;4904;49.152;11.004;2023-06-26T04:46:56;17.00;99.90
9730;DHT22;4904;49.152;11.004;2023-06-26T04:49:23;17.00;99.90
9730;DHT22;4904;49.152;11.004;2023-06-26T04:51:51;17.10;99.90
9730;DHT22;4904;49.152;11.004;2023-06-26T04:54:19;17.10;99.90
9730;DHT22;4904;49.152;11.004;2023-06-26T04:56:46;17.20;99.90
9730;DHT22;4904;49.152;11.004;2023-06-26T04:59:13;17.30;99.90
9730;DHT22;4904;49.152;11.004;2023-06-26T05:01:40;17.50;99.90
9730;DHT22;4904;49.152;11.004;2023-06-26T05:04:08;17.60;99.90
9730;DHT22;4904;49.152;11.004;2023-06-26T05:06:34;17.80;99.90
9730;DHT22;4904;49.152;11.004;2023-06-26T05:09:03;18.00;99.90
9730;DHT22;4904;49.152;11.004;2023-06-26T05:11:29;18.10;99.90
9730;DHT22;4904;49.152;11.004;2023-06-26T05:13:56;18.20;99.90
9730;DHT22;4904;49.152;11.004;2023-06-26T05:16:23;18.40;99.90
9730;DHT22;4904;49.152;11.004;2023-06-26T05:18:50;18.40;99.90
9730;DHT22;4904;49.152;11.004;2023-06-26T05:21:17;18.50;99.90
9730;DHT22;4904;49.152;11.004;2023-06-26T05:23:45;18.60;99.90
9730;DHT22;4904;49.152;11.004;2023-06-26T05:26:15;18.70;99.90
9730;DHT22;4904;49.152;11.004;2023-06-26T05:28:42;18.80;99.90
9730;DHT22;4904;49.152;11.004;2023-06-26T05:31:14;18.90;99.90
9730;DHT22;4904;49.152;11.004;2023-06-26T05:33:43;19.00;99.90
9730;DHT22;4904;49.152;11.004;2023-06-26T05:36:12;19.10;99.90
9730;DHT22;4904;49.152;11.004;2023-06-26T05:38:40;19.20;99.90
9730;DHT22;4904;49.152;11.004;2023-06-26T05:41:07;19.30;99.90
9730;DHT22;4904;49.152;11.004;2023-06-26T05:43:36;19.50;99.90
9730;DHT22;4904;49.152;11.004;2023-06-26T05:46:03;19.60;99.90
9730;DHT22;4904;49.152;11.004;2023-06-26T05:48:29;19.70;99.90
9730;DHT22;4904;49.152;11.004;2023-06-26T05:50:57;19.80;99.90
9730;DHT22;4904;49.152;11.004;2023-06-26T05:53:24;19.90;99.90
9730;DHT22;4904;49.152;11.004;2023-06-26T05:55:51;20.00;99.90
9730;DHT22;4904;49.152;11.004;2023-06-26T05:58:20;20.10;99.90
9730;DHT22;4904;49.152;11.004;2023-06-26T06:00:49;20.20;99.90
9730;DHT22;4904;49.152;11.004;2023-06-26T06:03:16;20.30;99.90
9730;DHT22;4904;49.152;11.004;2023-06-26T06:05:43;20.50;99.90
9730;DHT22;4904;49.152;11.004;2023-06-26T06:08:10;20.60;99.90
9730;DHT22;4904;49.152;11.004;2023-06-26T06:10:37;20.70;99.90
9730;DHT22;4904;49.152;11.004;2023-06-26T06:13:04;20.80;99.90
9730;DHT22;4904;49.152;11.004;2023-06-26T06:15:30;20.90;99.90
9730;DHT22;4904;49.152;11.004;2023-06-26T06:17:59;21.00;99.90
9730;DHT22;4904;49.152;11.004;2023-06-26T06:20:26;21.10;99.90
9730;DHT22;4904;49.152;11.004;2023-06-26T06:22:53;21.20;99.90
9730;DHT22;4904;49.152;11.004;2023-06-26T06:25:20;21.30;99.90
9730;DHT22;4904;49.152;11.004;2023-06-26T06:27:47;21.40;99.90
9730;DHT22;4904;49.152;11.004;2023-06-26T06:30:14;21.50;99.90
9730;DHT22;4904;49.152;11.004;2023-06-26T06:32:41;21.60;99.90
9730;DHT22;4904;49.152;11.004;2023-06-26T06:35:09;21.70;99.90
9730;DHT22;4904;49.152;11.004;2023-06-26T06:37:36;21.80;99.90
9730;DHT22;4904;49.152;11.004;2023-06-26T06:40:04;21.90;99.90
9730;DHT22;4904;49.152;11.004;2023-06-26T06:42:32;22.00;99.90
9730;DHT22;4904;49.152;11.004;2023-06-26T06:45:00;22.10;99.90
9730;DHT22;4904;49.152;11.004;2023-06-26T06:47:26;22.20;99.90
9730;DHT22;4904;49.152;11.004;2023-06-26T06:49:53;22.20;99.90
9730;DHT22;4904;49.152;11.004;2023-06-26T06:52:22;22.40;99.90
9730;DHT22;4904;49.152;11.004;2023-06-26T06:54:52;22.50;99.90
9730;DHT22;4904;49.152;11.004;2023-06-26T06:57:19;22.60;99.90
9730;DHT22;4904;49.152;11.004;2023-06-26T06:59:47;22.70;99.90
9730;DHT22;4904;49.152;11.004;2023-06-26T07:02:15;22.80;99.90
9730;DHT22;4904;49.152;11.004;2023-06-26T07:04:42;22.90;99.90
9730;DHT22;4904;49.152;11.004;2023-06-26T07:07:09;22.90;99.90
9730;DHT22;4904;49.152;11.004;2023-06-26T07:09:38;23.00;99.90
9730;DHT22;4904;49.152;11.004;2023-06-26T07:12:05;23.00;99.90
9730;DHT22;4904;49.152;11.004;2023-06-26T07:14:32;23.20;99.90
9730;DHT22;4904;49.152;11.004;2023-06-26T07:16:59;23.30;99.90
9730;DHT22;4904;49.152;11.004;2023-06-26T07:19:26;23.40;99.90
9730;DHT22;4904;49.152;11.004;2023-06-26T07:21:53;23.60;99.90
9730;DHT22;4904;49.152;11.004;2023-06-26T07:24:20;23.70;99.90
9730;DHT22;4904;49.152;11.004;2023-06-26T07:26:48;23.80;99.90
9730;DHT22;4904;49.152;11.004;2023-06-26T07:29:15;23.90;99.90
9730;DHT22;4904;49.152;11.004;2023-06-26T07:31:42;24.00;99.90
9730;DHT22;4904;49.152;11.004;2023-06-26T07:34:10;24.00;99.90
9730;DHT22;4904;49.152;11.004;2023-06-26T07:36:37;24.10;99.90
9730;DHT22;4904;49.152;11.004;2023-06-26T07:39:04;24.20;99.90
9730;DHT22;4904;49.152;11.004;2023-06-26T07:41:31;24.30;99.90
9730;DHT22;4904;49.152;11.004;2023-06-26T07:43:59;24.40;99.90
9730;DHT22;4904;49.152;11.004;2023-06-26T07:46:26;24.40;99.90
9730;DHT22;4904;49.152;11.004;2023-06-26T07:48:53;24.50;99.90
9730;DHT22;4904;49.152;11.004;2023-06-26T07:51:20;24.60;99.90
9730;DHT22;4904;49.152;11.004;2023-06-26T07:53:47;24.70;99.90
9730;DHT22;4904;49.152;11.004;2023-06-26T07:56:14;24.80;99.90
9730;DHT22;4904;49.152;11.004;2023-06-26T07:58:41;25.00;99.90
9730;DHT22;4904;49.152;11.004;2023-06-26T08:01:09;25.10;99.90
9730;DHT22;4904;49.152;11.004;2023-06-26T08:03:36;25.20;99.90
9730;DHT22;4904;49.152;11.004;2023-06-26T08:06:03;25.30;99.90
9730;DHT22;4904;49.152;11.004;2023-06-26T08:08:30;25.40;99.90
9730;DHT22;4904;49.152;11.004;2023-06-26T08:10:57;25.40;99.90
9730;DHT22;4904;49.152;11.004;2023-06-26T08:13:25;25.40;99.90
9730;DHT22;4904;49.152;11.004;2023-06-26T08:15:52;25.50;99.90
9730;DHT22;4904;49.152;11.004;2023-06-26T08:18:20;25.60;99.90
9730;DHT22;4904;49.152;11.004;2023-06-26T08:20:47;25.70;99.90
9730;DHT22;4904;49.152;11.004;2023-06-26T08:23:14;25.60;99.90
9730;DHT22;4904;49.152;11.004;2023-06-26T08:25:41;25.60;99.90
9730;DHT22;4904;49.152;11.004;2023-06-26T08:28:07;25.70;99.90
9730;DHT22;4904;49.152;11.004;2023-06-26T08:30:34;26.00;99.90
9730;DHT22;4904;49.152;11.004;2023-06-26T08:33:01;26.20;99.90
9730;DHT22;4904;49.152;11.004;2023-06-26T08:35:29;26.20;99.90
9730;DHT22;4904;49.152;11.004;2023-06-26T08:37:56;26.30;99.90
9730;DHT22;4904;49.152;11.004;2023-06-26T08:40:23;26.30;99.90
9730;DHT22;4904;49.152;11.004;2023-06-26T08:42:50;26.40;99.90
9730;DHT22;4904;49.152;11.004;2023-06-26T08:45:19;26.40;99.90
9730;DHT22;4904;49.152;11.004;2023-06-26T08:47:48;26.50;99.90
9730;DHT22;4904;49.152;11.004;2023-06-26T08:50:20;26.60;99.90
9730;DHT22;4904;49.152;11.004;2023-06-26T08:52:53;26.80;99.90
9730;DHT22;4904;49.152;11.004;2023-06-26T08:55:21;27.00;99.90
9730;DHT22;4904;49.152;11.004;2023-06-26T08:57:50;27.10;99.90
9730;DHT22;4904;49.152;11.004;2023-06-26T09:00:18;27.10;99.90
9730;DHT22;4904;49.152;11.004;2023-06-26T09:02:45;27.10;99.90
9730;DHT22;4904;49.152;11.004;2023-06-26T09:05:12;27.20;99.90
9730;DHT22;4904;49.152;11.004;2023-06-26T09:07:39;27.20;99.90
9730;DHT22;4904;49.152;11.004;2023-06-26T09:10:08;27.20;99.90
9730;DHT22;4904;49.152;11.004;2023-06-26T09:12:37;27.20;99.90
9730;DHT22;4904;49.152;11.004;2023-06-26T09:15:05;27.30;99.90
9730;DHT22;4904;49.152;11.004;2023-06-26T09:17:38;27.40;99.90
9730;DHT22;4904;49.152;11.004;2023-06-26T09:20:05;27.50;99.90
9730;DHT22;4904;49.152;11.004;2023-06-26T09:22:36;27.70;99.90
9730;DHT22;4904;49.152;11.004;2023-06-26T09:25:05;27.70;99.90
9730;DHT22;4904;49.152;11.004;2023-06-26T09:27:34;27.80;99.90
9730;DHT22;4904;49.152;11.004;2023-06-26T09:30:02;27.80;99.90
9730;DHT22;4904;49.152;11.004;2023-06-26T09:32:29;27.70;99.90
9730;DHT22;4904;49.152;11.004;2023-06-26T09:34:56;27.80;99.90
9730;DHT22;4904;49.152;11.004;2023-06-26T09:37:26;27.90;99.90
9730;DHT22;4904;49.152;11.004;2023-06-26T09:39:53;27.90;99.90
9730;DHT22;4904;49.152;11.004;2023-06-26T09:42:20;27.90;99.90
9730;DHT22;4904;49.152;11.004;2023-06-26T09:44:49;28.10;99.90
9730;DHT22;4904;49.152;11.004;2023-06-26T09:47:18;28.20;99.90
9730;DHT22;4904;49.152;11.004;2023-06-26T09:49:45;28.20;99.90
9730;DHT22;4904;49.152;11.004;2023-06-26T09:52:14;28.40;99.90
9730;DHT22;4904;49.152;11.004;2023-06-26T09:54:42;28.60;99.90
9730;DHT22;4904;49.152;11.004;2023-06-26T09:57:11;28.60;99.90
9730;DHT22;4904;49.152;11.004;2023-06-26T09:59:39;28.50;99.90
9730;DHT22;4904;49.152;11.004;2023-06-26T10:02:08;28.40;99.90
9730;DHT22;4904;49.152;11.004;2023-06-26T10:04:36;28.40;99.90
9730;DHT22;4904;49.152;11.004;2023-06-26T10:07:06;28.40;99.90
9730;DHT22;4904;49.152;11.004;2023-06-26T10:09:33;28.50;99.90
9730;DHT22;4904;49.152;11.004;2023-06-26T10:12:03;28.50;99.90
9730;DHT22;4904;49.152;11.004;2023-06-26T10:14:34;28.70;99.90
9730;DHT22;4904;49.152;11.004;2023-06-26T10:17:03;28.60;99.90
9730;DHT22;4904;49.152;11.004;2023-06-26T10:19:33;28.50;99.90
9730;DHT22;4904;49.152;11.004;2023-06-26T10:22:02;28.70;99.90
9730;DHT22;4904;49.152;11.004;2023-06-26T10:24:32;28.70;99.90
9730;DHT22;4904;49.152;11.004;2023-06-26T10:27:06;28.70;99.90
9730;DHT22;4904;49.152;11.004;2023-06-26T10:29:36;28.70;99.90
9730;DHT22;4904;49.152;11.004;2023-06-26T10:32:04;28.90;99.90
9730;DHT22;4904;49.152;11.004;2023-06-26T10:34:34;28.80;99.90
9730;DHT22;4904;49.152;11.004;2023-06-26T10:37:02;28.80;99.90
9730;DHT22;4904;49.152;11.004;2023-06-26T10:39:46;28.90;99.90
9730;DHT22;4904;49.152;11.004;2023-06-26T10:42:14;28.90;99.90
9730;DHT22;4904;49.152;11.004;2023-06-26T10:44:42;28.90;99.90
9730;DHT22;4904;49.152;11.004;2023-06-26T10:47:10;29.10;99.90
9730;DHT22;4904;49.152;11.004;2023-06-26T10:49:38;29.10;99.90
9730;DHT22;4904;49.152;11.004;2023-06-26T10:52:13;29.00;99.90
9730;DHT22;4904;49.152;11.004;2023-06-26T10:54:40;28.90;99.90
9730;DHT22;4904;49.152;11.004;2023-06-26T10:57:07;29.00;99.90
9730;DHT22;4904;49.152;11.004;2023-06-26T10:59:34;29.00;99.90
9730;DHT22;4904;49.152;11.004;2023-06-26T11:02:05;29.10;99.90
9730;DHT22;4904;49.152;11.004;2023-06-26T11:04:43;29.10;99.90
9730;DHT22;4904;49.152;11.004;2023-06-26T11:07:19;29.10;99.90
9730;DHT22;4904;49.152;11.004;2023-06-26T11:10:00;29.20;99.90
9730;DHT22;4904;49.152;11.004;2023-06-26T11:12:35;29.20;99.90
9730;DHT22;4904;49.152;11.004;2023-06-26T11:15:02;29.30;99.90
9730;DHT22;4904;49.152;11.004;2023-06-26T11:17:30;29.30;99.90
9730;DHT22;4904;49.152;11.004;2023-06-26T11:19:59;29.40;99.90
9730;DHT22;4904;49.152;11.004;2023-06-26T11:22:26;29.40;99.90
9730;DHT22;4904;49.152;11.004;2023-06-26T11:24:53;29.50;99.90
9730;DHT22;4904;49.152;11.004;2023-06-26T11:27:20;29.50;99.90
9730;DHT22;4904;49.152;11.004;2023-06-26T11:29:49;29.60;99.90
9730;DHT22;4904;49.152;11.004;2023-06-26T11:32:16;29.50;99.90
9730;DHT22;4904;49.152;11.004;2023-06-26T11:34:43;29.40;99.90
9730;DHT22;4904;49.152;11.004;2023-06-26T11:37:12;29.40;99.90
9730;DHT22;4904;49.152;11.004;2023-06-26T11:39:38;29.50;99.90
9730;DHT22;4904;49.152;11.004;2023-06-26T11:42:06;29.60;99.90
9730;DHT22;4904;49.152;11.004;2023-06-26T11:44:39;29.70;99.90
9730;DHT22;4904;49.152;11.004;2023-06-26T11:47:07;29.80;99.90
9730;DHT22;4904;49.152;11.004;2023-06-26T11:49:34;29.80;99.90
9730;DHT22;4904;49.152;11.004;2023-06-26T11:52:03;29.70;99.90
9730;DHT22;4904;49.152;11.004;2023-06-26T11:54:33;29.50;99.90
9730;DHT22;4904;49.152;11.004;2023-06-26T11:57:00;29.40;99.90
9730;DHT22;4904;49.152;11.004;2023-06-26T11:59:37;29.60;99.90
9730;DHT22;4904;49.152;11.004;2023-06-26T12:02:06;29.80;99.90
9730;DHT22;4904;49.152;11.004;2023-06-26T12:04:34;29.90;99.90
9730;DHT22;4904;49.152;11.004;2023-06-26T12:07:02;29.90;99.90
9730;DHT22;4904;49.152;11.004;2023-06-26T12:09:34;30.00;99.90
9730;DHT22;4904;49.152;11.004;2023-06-26T12:12:04;30.30;99.90
9730;DHT22;4904;49.152;11.004;2023-06-26T12:14:32;30.30;99.90
9730;DHT22;4904;49.152;11.004;2023-06-26T12:17:04;30.00;99.90
9730;DHT22;4904;49.152;11.004;2023-06-26T12:19:36;30.00;99.90
9730;DHT22;4904;49.152;11.004;2023-06-26T12:22:06;30.00;99.90
9730;DHT22;4904;49.152;11.004;2023-06-26T12:24:36;30.00;99.90
9730;DHT22;4904;49.152;11.004;2023-06-26T12:27:08;30.00;99.90
9730;DHT22;4904;49.152;11.004;2023-06-26T12:29:37;30.10;99.90
9730;DHT22;4904;49.152;11.004;2023-06-26T12:32:07;30.40;99.90
9730;DHT22;4904;49.152;11.004;2023-06-26T12:34:36;30.40;99.90
9730;DHT22;4904;49.152;11.004;2023-06-26T12:37:05;30.40;99.60
9730;DHT22;4904;49.152;11.004;2023-06-26T12:39:47;30.40;99.20
9730;DHT22;4904;49.152;11.004;2023-06-26T12:42:15;30.30;99.90
9730;DHT22;4904;49.152;11.004;2023-06-26T12:44:42;30.30;99.80
9730;DHT22;4904;49.152;11.004;2023-06-26T12:47:09;30.20;99.40
9730;DHT22;4904;49.152;11.004;2023-06-26T12:49:40;30.30;99.90
9730;DHT22;4904;49.152;11.004;2023-06-26T12:52:09;30.30;99.90
9730;DHT22;4904;49.152;11.004;2023-06-26T12:54:38;30.40;99.90
9730;DHT22;4904;49.152;11.004;2023-06-26T12:57:07;30.60;99.90
9730;DHT22;4904;49.152;11.004;2023-06-26T12:59:35;30.60;99.90
9730;DHT22;4904;49.152;11.004;2023-06-26T13:02:02;30.70;99.90
9730;DHT22;4904;49.152;11.004;2023-06-26T13:04:30;30.70;99.90
9730;DHT22;4904;49.152;11.004;2023-06-26T13:06:57;30.70;99.90
9730;DHT22;4904;49.152;11.004;2023-06-26T13:09:25;30.70;99.90
9730;DHT22;4904;49.152;11.004;2023-06-26T13:11:52;30.50;99.90
9730;DHT22;4904;49.152;11.004;2023-06-26T13:14:20;30.20;99.90
9730;DHT22;4904;49.152;11.004;2023-06-26T13:16:47;30.10;99.90
9730;DHT22;4904;49.152;11.004;2023-06-26T13:19:14;30.20;99.90
9730;DHT22;4904;49.152;11.004;2023-06-26T13:21:41;30.40;99.90
9730;DHT22;4904;49.152;11.004;2023-06-26T13:24:08;30.80;99.90
9730;DHT22;4904;49.152;11.004;2023-06-26T13:26:35;30.90;99.90
9730;DHT22;4904;49.152;11.004;2023-06-26T13:29:02;30.60;99.90
9730;DHT22;4904;49.152;11.004;2023-06-26T13:31:31;30.40;99.90
9730;DHT22;4904;49.152;11.004;2023-06-26T13:33:58;30.40;99.90
9730;DHT22;4904;49.152;11.004;2023-06-26T13:36:25;30.40;99.90
9730;DHT22;4904;49.152;11.004;2023-06-26T13:38:52;30.50;99.90
9730;DHT22;4904;49.152;11.004;2023-06-26T13:41:21;30.60;99.90
9730;DHT22;4904;49.152;11.004;2023-06-26T13:43:48;30.70;99.90
9730;DHT22;4904;49.152;11.004;2023-06-26T13:46:15;30.70;99.90
9730;DHT22;4904;49.152;11.004;2023-06-26T13:48:43;30.70;99.90
9730;DHT22;4904;49.152;11.004;2023-06-26T13:51:11;30.80;99.90
9730;DHT22;4904;49.152;11.004;2023-06-26T13:53:38;30.80;99.90
9730;DHT22;4904;49.152;11.004;2023-06-26T13:56:05;30.80;99.90
9730;DHT22;4904;49.152;11.004;2023-06-26T13:58:34;30.70;99.90
9730;DHT22;4904;49.152;11.004;2023-06-26T14:01:01;30.70;99.90
9730;DHT22;4904;49.152;11.004;2023-06-26T14:03:28;30.70;99.90
9730;DHT22;4904;49.152;11.004;2023-06-26T14:05:56;30.80;99.90
9730;DHT22;4904;49.152;11.004;2023-06-26T14:08:23;31.00;99.90
9730;DHT22;4904;49.152;11.004;2023-06-26T14:10:51;31.00;99.90
9730;DHT22;4904;49.152;11.004;2023-06-26T14:13:18;30.90;99.90
9730;DHT22;4904;49.152;11.004;2023-06-26T14:15:45;30.80;99.90
9730;DHT22;4904;49.152;11.004;2023-06-26T14:18:12;30.80;99.90
9730;DHT22;4904;49.152;11.004;2023-06-26T14:20:40;30.80;99.90
9730;DHT22;4904;49.152;11.004;2023-06-26T14:23:08;30.70;99.90
9730;DHT22;4904;49.152;11.004;2023-06-26T14:25:35;30.60;99.90
9730;DHT22;4904;49.152;11.004;2023-06-26T14:28:02;30.50;99.90
9730;DHT22;4904;49.152;11.004;2023-06-26T14:30:29;30.50;99.90
9730;DHT22;4904;49.152;11.004;2023-06-26T14:32:56;30.50;99.90
9730;DHT22;4904;49.152;11.004;2023-06-26T14:35:23;30.30;99.90
9730;DHT22;4904;49.152;11.004;2023-06-26T14:37:50;30.30;99.90
9730;DHT22;4904;49.152;11.004;2023-06-26T14:40:19;30.30;99.90
9730;DHT22;4904;49.152;11.004;2023-06-26T14:42:46;30.40;99.90
9730;DHT22;4904;49.152;11.004;2023-06-26T14:45:13;30.60;99.90
9730;DHT22;4904;49.152;11.004;2023-06-26T14:47:39;30.60;99.90
9730;DHT22;4904;49.152;11.004;2023-06-26T14:50:08;30.40;99.90
9730;DHT22;4904;49.152;11.004;2023-06-26T14:52:35;30.30;99.90
9730;DHT22;4904;49.152;11.004;2023-06-26T14:55:02;30.40;99.90
9730;DHT22;4904;49.152;11.004;2023-06-26T14:57:31;30.80;99.90
9730;DHT22;4904;49.152;11.004;2023-06-26T14:59:58;30.70;99.90
9730;DHT22;4904;49.152;11.004;2023-06-26T15:02:24;30.80;99.90
9730;DHT22;4904;49.152;11.004;2023-06-26T15:04:52;31.00;99.90
9730;DHT22;4904;49.152;11.004;2023-06-26T15:07:19;30.80;99.90
9730;DHT22;4904;49.152;11.004;2023-06-26T15:09:46;30.50;99.90
9730;DHT22;4904;49.152;11.004;2023-06-26T15:12:13;30.60;99.90
9730;DHT22;4904;49.152;11.004;2023-06-26T15:14:41;30.70;99.90
9730;DHT22;4904;49.152;11.004;2023-06-26T15:17:08;30.70;99.90
9730;DHT22;4904;49.152;11.004;2023-06-26T15:19:36;30.90;99.90
9730;DHT22;4904;49.152;11.004;2023-06-26T15:22:03;31.00;99.90
9730;DHT22;4904;49.152;11.004;2023-06-26T15:24:30;30.90;99.90
9730;DHT22;4904;49.152;11.004;2023-06-26T15:26:57;30.80;99.90
9730;DHT22;4904;49.152;11.004;2023-06-26T15:29:24;30.70;99.90
9730;DHT22;4904;49.152;11.004;2023-06-26T15:31:52;30.90;99.90
9730;DHT22;4904;49.152;11.004;2023-06-26T15:34:20;31.40;99.90
9730;DHT22;4904;49.152;11.004;2023-06-26T15:36:46;32.10;99.90
9730;DHT22;4904;49.152;11.004;2023-06-26T15:39:15;33.30;99.90
9730;DHT22;4904;49.152;11.004;2023-06-26T15:41:42;34.20;99.90
9730;DHT22;4904;49.152;11.004;2023-06-26T15:44:09;34.60;99.90
9730;DHT22;4904;49.152;11.004;2023-06-26T15:46:36;35.40;99.90
9730;DHT22;4904;49.152;11.004;2023-06-26T15:49:05;36.20;99.90